createdAt,value
2024-05-09T00:01:00.327Z,94.71
2024-05-09T00:01:42.043Z,94.81
2024-05-09T00:02:41.184Z,94.60
2024-05-09T00:03:41.985Z,94.51
2024-05-09T00:04:41.958Z,94.60
2024-05-09T00:05:42.440Z,94.71
2024-05-09T00:06:41.209Z,94.60
2024-05-09T00:07:41.980Z,94.51
2024-05-09T00:08:42.232Z,94.40
2024-05-09T00:09:41.932Z,94.60
2024-05-09T00:11:01.070Z,94.81
2024-05-09T00:11:40.204Z,94.81
2024-05-09T00:12:39.797Z,94.81
2024-05-09T00:13:40.008Z,94.71
2024-05-09T00:14:39.808Z,94.60
2024-05-09T00:16:56.027Z,94.60
2024-05-09T00:17:55.942Z,94.65
2024-05-09T00:18:56.065Z,94.75
2024-05-09T00:19:55.692Z,94.75
2024-05-09T00:20:55.911Z,94.65
2024-05-09T00:21:57.619Z,94.55
2024-05-09T00:22:55.912Z,94.65
2024-05-09T00:23:55.615Z,94.55
2024-05-09T00:24:55.847Z,94.65
2024-05-09T00:26:15.589Z,94.75
2024-05-09T00:26:55.814Z,94.75
2024-05-09T00:27:55.512Z,94.85
2024-05-09T00:28:55.763Z,94.85
2024-05-09T00:29:55.933Z,94.85
2024-05-09T00:30:55.646Z,94.85
2024-05-09T00:31:55.983Z,94.96
2024-05-09T00:32:55.746Z,94.96
2024-05-09T00:33:56.047Z,94.96
2024-05-09T00:34:55.536Z,94.96
2024-05-09T00:36:15.732Z,94.96
2024-05-09T00:36:55.459Z,94.85
2024-05-09T00:37:55.765Z,94.85
2024-05-09T00:38:55.437Z,94.96
2024-05-09T00:39:55.654Z,95.00
2024-05-09T00:40:55.420Z,95.00
2024-05-09T00:41:55.594Z,94.90
2024-05-09T00:42:55.319Z,94.80
2024-05-09T00:43:55.585Z,94.80
2024-05-09T00:44:55.258Z,94.90
2024-05-09T00:46:17.067Z,95.00
2024-05-09T00:46:55.395Z,94.90
2024-05-09T00:47:55.679Z,95.00
2024-05-09T00:48:55.392Z,95.00
2024-05-09T00:49:55.488Z,95.10
2024-05-09T00:50:55.681Z,95.10
2024-05-09T00:51:55.350Z,95.10
2024-05-09T00:52:55.666Z,94.90
2024-05-09T00:53:55.303Z,94.90
2024-05-09T00:54:55.500Z,94.80
2024-05-09T00:56:17.278Z,94.90
2024-05-09T00:56:55.524Z,95.00
2024-05-09T00:57:55.249Z,95.00
2024-05-09T00:58:55.509Z,95.00
2024-05-09T00:59:55.170Z,95.10
2024-05-09T01:00:55.414Z,95.00
2024-05-09T01:01:55.309Z,95.10
2024-05-09T01:02:55.509Z,95.31
2024-05-09T01:03:55.692Z,95.62
2024-05-09T01:04:55.485Z,95.72
2024-05-09T01:06:16.479Z,95.82
2024-05-09T01:07:00.522Z,95.72
2024-05-09T01:07:55.323Z,95.62
2024-05-09T01:08:55.463Z,95.66
2024-05-09T01:09:55.227Z,95.76
2024-05-09T01:10:55.527Z,95.66
2024-05-09T01:11:55.369Z,95.56
2024-05-09T01:12:55.347Z,95.46
2024-05-09T01:13:55.088Z,95.36
2024-05-09T01:14:55.310Z,95.36
2024-05-09T01:16:16.592Z,95.36
2024-05-09T01:16:55.411Z,95.36
2024-05-09T01:17:55.552Z,95.25
2024-05-09T01:18:55.549Z,95.36
2024-05-09T01:19:55.046Z,95.36
2024-05-09T01:21:02.554Z,95.36
2024-05-09T01:21:55.217Z,95.46
2024-05-09T01:22:55.004Z,95.36
2024-05-09T01:23:55.193Z,95.36
2024-05-09T01:24:54.888Z,95.36
2024-05-09T01:26:17.169Z,95.25
2024-05-09T01:26:54.879Z,95.40
2024-05-09T01:27:55.083Z,95.40
2024-05-09T01:28:54.942Z,95.50
2024-05-09T01:29:55.027Z,95.50
2024-05-09T01:30:55.246Z,95.29
2024-05-09T01:31:55.097Z,95.20
2024-05-09T01:32:55.366Z,95.29
2024-05-09T01:33:54.956Z,95.09
2024-05-09T01:34:55.194Z,95.20
2024-05-09T01:36:15.871Z,95.20
2024-05-09T01:36:55.387Z,95.20
2024-05-09T01:37:54.890Z,95.50
2024-05-09T01:38:55.066Z,95.50
2024-05-09T01:39:54.772Z,95.50
2024-05-09T01:40:55.076Z,95.40
2024-05-09T01:41:54.823Z,95.61
2024-05-09T01:42:55.279Z,95.75
2024-05-09T01:43:54.718Z,95.65
2024-05-09T01:44:54.886Z,95.54
2024-05-09T01:46:17.139Z,95.86
2024-05-09T01:46:54.911Z,95.95
2024-05-09T01:48:02.234Z,95.95
2024-05-09T01:48:54.792Z,96.06
2024-05-09T01:49:54.900Z,96.26
2024-05-09T01:50:54.635Z,96.16
2024-05-09T01:51:54.795Z,96.26
2024-05-09T01:52:55.089Z,96.26
2024-05-09T01:53:54.760Z,96.26
2024-05-09T01:54:54.952Z,96.37
2024-05-09T01:56:16.769Z,96.26
2024-05-09T01:56:54.982Z,96.26
2024-05-09T01:57:54.680Z,96.16
2024-05-09T01:58:55.014Z,96.06
2024-05-09T01:59:54.630Z,95.95
2024-05-09T02:00:54.907Z,95.86
2024-05-09T02:01:57.016Z,95.95
2024-05-09T02:03:00.217Z,95.95
2024-05-09T02:03:54.855Z,96.06
2024-05-09T02:04:54.598Z,96.10
2024-05-09T02:06:16.749Z,96.31
2024-05-09T02:06:54.486Z,96.41
2024-05-09T02:07:54.774Z,96.31
2024-05-09T02:08:54.477Z,96.31
2024-05-09T02:09:54.725Z,96.41
2024-05-09T02:10:54.503Z,96.41
2024-05-09T02:11:54.786Z,96.41
2024-05-09T02:12:54.366Z,96.41
2024-05-09T02:13:54.584Z,96.41
2024-05-09T02:14:54.802Z,96.31
2024-05-09T02:16:15.521Z,96.31
2024-05-09T02:16:54.851Z,96.20
2024-05-09T02:17:54.978Z,96.20
2024-05-09T02:18:54.511Z,96.10
2024-05-09T02:19:54.714Z,96.00
2024-05-09T02:20:54.384Z,96.00
2024-05-09T02:21:54.590Z,96.10
2024-05-09T02:22:54.396Z,96.10
2024-05-09T02:23:54.546Z,96.10
2024-05-09T02:24:54.268Z,96.10
2024-05-09T02:26:16.691Z,96.10
2024-05-09T02:26:54.384Z,96.10
2024-05-09T02:27:57.053Z,96.10
2024-05-09T02:28:54.352Z,96.20
2024-05-09T02:29:54.541Z,96.10
2024-05-09T02:30:54.242Z,96.10
2024-05-09T02:31:54.592Z,96.10
2024-05-09T02:32:54.425Z,96.00
2024-05-09T02:33:54.680Z,96.10
2024-05-09T02:34:54.277Z,96.00
2024-05-09T02:36:16.427Z,95.90
2024-05-09T02:36:54.188Z,95.90
2024-05-09T02:37:54.470Z,95.79
2024-05-09T02:38:54.138Z,95.79
2024-05-09T02:39:54.357Z,95.90
2024-05-09T02:40:54.109Z,96.00
2024-05-09T02:41:54.307Z,96.10
2024-05-09T02:42:54.010Z,96.20
2024-05-09T02:43:54.247Z,96.31
2024-05-09T02:44:54.452Z,96.31
2024-05-09T02:46:15.181Z,96.41
2024-05-09T02:46:54.489Z,96.51
2024-05-09T02:47:54.506Z,96.41
2024-05-09T02:48:54.486Z,96.31
2024-05-09T02:49:54.140Z,96.31
2024-05-09T02:50:54.355Z,96.20
2024-05-09T02:51:54.069Z,96.10
2024-05-09T02:52:54.299Z,96.20
2024-05-09T02:53:54.020Z,96.10
2024-05-09T02:54:54.260Z,96.15
2024-05-09T02:56:16.016Z,96.15
2024-05-09T02:56:54.241Z,96.15
2024-05-09T02:57:53.967Z,96.15
2024-05-09T02:58:54.219Z,96.15
2024-05-09T02:59:53.916Z,96.20
2024-05-09T03:01:02.404Z,96.25
2024-05-09T03:01:54.178Z,96.15
2024-05-09T03:02:53.933Z,96.15
2024-05-09T03:03:54.156Z,96.15
2024-05-09T03:04:54.458Z,96.04
2024-05-09T03:06:15.975Z,96.04
2024-05-09T03:06:53.756Z,96.04
2024-05-09T03:07:53.990Z,96.04
2024-05-09T03:08:54.189Z,96.04
2024-05-09T03:09:53.920Z,96.04
2024-05-09T03:10:54.182Z,95.94
2024-05-09T03:11:53.963Z,96.04
2024-05-09T03:12:54.087Z,96.15
2024-05-09T03:13:53.895Z,96.25
2024-05-09T03:14:54.014Z,96.35
2024-05-09T03:16:15.246Z,96.25
2024-05-09T03:16:54.054Z,96.15
2024-05-09T03:17:53.898Z,96.25
2024-05-09T03:18:54.111Z,96.04
2024-05-09T03:19:53.714Z,96.15
2024-05-09T03:20:54.006Z,96.15
2024-05-09T03:21:53.706Z,96.15
2024-05-09T03:22:57.011Z,96.04
2024-05-09T03:23:53.710Z,96.04
2024-05-09T03:24:53.848Z,96.09
2024-05-09T03:26:15.654Z,96.09
2024-05-09T03:26:53.874Z,96.19
2024-05-09T03:27:54.465Z,96.40
2024-05-09T03:28:53.817Z,96.40
2024-05-09T03:30:00.805Z,96.50
2024-05-09T03:30:53.520Z,96.50
2024-05-09T03:31:53.798Z,96.50
2024-05-09T03:32:53.624Z,96.60
2024-05-09T03:33:53.781Z,96.70
2024-05-09T03:34:53.914Z,96.70
2024-05-09T03:36:15.602Z,96.70
2024-05-09T03:36:53.892Z,96.60
2024-05-09T03:37:53.642Z,96.40
2024-05-09T03:38:53.837Z,96.40
2024-05-09T03:39:53.547Z,96.40
2024-05-09T03:40:53.805Z,96.30
2024-05-09T03:41:53.512Z,96.19
2024-05-09T03:42:53.724Z,96.30
2024-05-09T03:45:09.955Z,96.40
2024-05-09T03:46:10.746Z,96.30
2024-05-09T03:47:10.564Z,96.44
2024-05-09T03:48:11.154Z,96.55
2024-05-09T03:49:10.594Z,96.65
2024-05-09T03:50:18.030Z,96.75
2024-05-09T03:51:11.648Z,96.85
2024-05-09T03:52:10.817Z,96.85
2024-05-09T03:53:08.939Z,96.85
2024-05-09T03:54:28.863Z,96.85
2024-05-09T03:55:10.054Z,96.85
2024-05-09T03:56:10.856Z,96.95
2024-05-09T03:57:10.577Z,96.95
2024-05-09T03:58:08.855Z,96.75
2024-05-09T03:59:08.623Z,96.65
2024-05-09T04:00:17.743Z,96.65
2024-05-09T04:01:09.593Z,96.65
2024-05-09T04:02:08.856Z,96.65
2024-05-09T04:03:11.166Z,96.65
2024-05-09T04:04:30.260Z,96.65
2024-05-09T04:05:08.506Z,96.75
2024-05-09T04:06:16.911Z,96.65
2024-05-09T04:07:08.670Z,96.44
2024-05-09T04:08:08.506Z,96.44
2024-05-09T04:09:08.722Z,96.44
2024-05-09T04:10:11.283Z,96.44
2024-05-09T04:11:09.803Z,96.55
2024-05-09T04:12:08.560Z,96.65
2024-05-09T04:13:08.616Z,96.65
2024-05-09T04:14:29.193Z,96.75
2024-05-09T04:15:12.127Z,96.65
2024-05-09T04:16:08.327Z,96.65
2024-05-09T04:17:08.568Z,96.65
2024-05-09T04:18:08.652Z,96.55
2024-05-09T04:19:08.569Z,96.44
2024-05-09T04:20:24.175Z,96.44
2024-05-09T04:21:09.463Z,96.34
2024-05-09T04:22:08.492Z,96.34
2024-05-09T04:23:09.253Z,96.34
2024-05-09T04:24:30.427Z,96.55
2024-05-09T04:25:08.199Z,96.65
2024-05-09T04:26:08.467Z,96.75
2024-05-09T04:27:08.161Z,96.85
2024-05-09T04:28:08.377Z,96.75
2024-05-09T04:29:08.190Z,96.65
2024-05-09T04:30:15.275Z,96.75
2024-05-09T04:31:09.531Z,96.75
2024-05-09T04:32:08.378Z,96.75
2024-05-09T04:33:10.901Z,96.75
2024-05-09T04:34:30.334Z,96.75
2024-05-09T04:35:08.080Z,96.85
2024-05-09T04:36:08.217Z,96.85
2024-05-09T04:37:08.461Z,96.95
2024-05-09T04:38:08.247Z,97.06
2024-05-09T04:39:08.386Z,97.06
2024-05-09T04:40:11.301Z,97.12
2024-05-09T04:41:09.368Z,97.12
2024-05-09T04:42:08.047Z,97.12
2024-05-09T04:43:08.282Z,97.12
2024-05-09T04:44:28.978Z,97.02
2024-05-09T04:45:08.253Z,96.91
2024-05-09T04:46:07.968Z,96.91
2024-05-09T04:47:10.197Z,97.02
2024-05-09T04:48:08.127Z,97.12
2024-05-09T04:49:14.633Z,97.22
2024-05-09T04:50:11.558Z,97.22
2024-05-09T04:51:09.026Z,97.22
2024-05-09T04:52:08.106Z,97.22
2024-05-09T04:53:09.528Z,97.17
2024-05-09T04:54:35.846Z,97.17
2024-05-09T04:55:08.832Z,97.07
2024-05-09T04:56:08.108Z,97.07
2024-05-09T04:57:07.758Z,97.07
2024-05-09T04:58:08.029Z,97.07
2024-05-09T04:59:07.801Z,97.07
2024-05-09T05:00:14.555Z,97.07
2024-05-09T05:01:09.255Z,97.03
2024-05-09T05:02:08.025Z,97.03
2024-05-09T05:03:09.492Z,96.92
2024-05-09T05:04:29.910Z,96.82
2024-05-09T05:05:08.214Z,96.82
2024-05-09T05:06:07.920Z,96.82
2024-05-09T05:07:08.074Z,96.82
2024-05-09T05:08:07.820Z,96.82
2024-05-09T05:09:07.992Z,96.67
2024-05-09T05:10:11.834Z,96.57
2024-05-09T05:11:09.046Z,96.57
2024-05-09T05:12:07.717Z,96.67
2024-05-09T05:13:07.900Z,96.67
2024-05-09T05:14:29.660Z,96.78
2024-05-09T05:15:07.875Z,96.63
2024-05-09T05:16:14.853Z,96.63
2024-05-09T05:17:07.664Z,96.63
2024-05-09T05:18:08.093Z,96.53
2024-05-09T05:19:10.832Z,96.53
2024-05-09T05:20:08.766Z,96.53
2024-05-09T05:21:07.569Z,96.42
2024-05-09T05:22:07.815Z,96.38
2024-05-09T05:23:07.592Z,96.38
2024-05-09T05:24:27.744Z,96.48
2024-05-09T05:25:08.946Z,96.48
2024-05-09T05:26:07.872Z,96.58
2024-05-09T05:27:07.522Z,96.58
2024-05-09T05:28:09.702Z,96.64
2024-05-09T05:29:07.493Z,96.64
2024-05-09T05:30:12.033Z,96.64
2024-05-09T05:31:08.394Z,96.64
2024-05-09T05:32:07.717Z,96.59
2024-05-09T05:33:07.933Z,96.49
2024-05-09T05:34:27.586Z,96.59
2024-05-09T05:35:07.862Z,96.59
2024-05-09T05:36:07.547Z,96.59
2024-05-09T05:37:07.757Z,96.55
2024-05-09T05:38:07.531Z,96.55
2024-05-09T05:39:07.706Z,96.55
2024-05-09T05:40:11.822Z,96.55
2024-05-09T05:41:07.723Z,96.45
2024-05-09T05:42:07.395Z,96.41
2024-05-09T05:43:07.606Z,96.41
2024-05-09T05:44:27.491Z,96.41
2024-05-09T05:45:09.661Z,96.41
2024-05-09T05:46:13.452Z,96.26
2024-05-09T05:47:08.372Z,96.26
2024-05-09T05:48:08.152Z,96.26
2024-05-09T05:49:07.308Z,96.26
2024-05-09T05:50:17.818Z,96.11
2024-05-09T05:51:08.256Z,96.21
2024-05-09T05:52:09.393Z,96.51
2024-05-09T05:53:08.014Z,96.83
2024-05-09T05:54:27.412Z,97.08
2024-05-09T05:55:07.133Z,97.19
2024-05-09T05:56:06.673Z,97.19
2024-05-09T05:57:06.723Z,97.19
2024-05-09T05:58:06.636Z,97.24
2024-05-09T05:59:15.151Z,97.45
2024-05-09T06:00:09.589Z,97.34
2024-05-09T06:01:06.914Z,97.30
2024-05-09T06:02:07.401Z,97.30
2024-05-09T06:03:07.932Z,97.30
2024-05-09T06:04:29.371Z,97.25
2024-05-09T06:05:09.651Z,97.25
2024-05-09T06:06:07.279Z,97.16
2024-05-09T06:07:07.489Z,97.00
2024-05-09T06:08:07.310Z,96.91
2024-05-09T06:09:07.421Z,96.70
2024-05-09T06:10:11.360Z,96.45
2024-05-09T06:11:08.399Z,96.25
2024-05-09T06:12:07.147Z,95.94
2024-05-09T06:13:07.274Z,96.00
2024-05-09T06:14:27.216Z,95.90
2024-05-09T06:15:07.221Z,95.65
2024-05-09T06:16:06.955Z,95.24
2024-05-09T06:17:07.197Z,95.04
2024-05-09T06:18:07.240Z,94.79
2024-05-09T06:19:07.168Z,94.59
2024-05-09T06:20:11.160Z,94.18
2024-05-09T06:21:08.113Z,93.83
2024-05-09T06:22:07.272Z,93.83
2024-05-09T06:23:07.238Z,93.73
2024-05-09T06:24:27.216Z,93.28
2024-05-09T06:25:06.968Z,93.07
2024-05-09T06:26:07.194Z,92.52
2024-05-09T06:27:06.913Z,92.42
2024-05-09T06:28:07.131Z,92.02
2024-05-09T06:29:08.839Z,91.97
2024-05-09T06:30:14.422Z,91.67
2024-05-09T06:31:07.819Z,91.26
2024-05-09T06:32:07.110Z,91.02
2024-05-09T06:33:07.125Z,90.81
2024-05-09T06:34:27.224Z,90.31
2024-05-09T06:35:08.715Z,89.96
2024-05-09T06:36:06.951Z,89.55
2024-05-09T06:37:06.676Z,89.25
2024-05-09T06:38:06.976Z,88.80
2024-05-09T06:39:06.658Z,88.20
2024-05-09T06:40:07.643Z,87.99
2024-05-09T06:41:07.145Z,87.95
2024-05-09T06:42:06.861Z,87.65
2024-05-09T06:43:07.111Z,87.74
2024-05-09T06:44:28.857Z,87.30
2024-05-09T06:45:06.620Z,87.20
2024-05-09T06:46:06.847Z,87.20
2024-05-09T06:47:06.671Z,86.69
2024-05-09T06:48:07.085Z,86.08
2024-05-09T06:49:09.212Z,86.35
2024-05-09T06:50:13.106Z,86.65
2024-05-09T06:51:08.254Z,86.15
2024-05-09T06:52:06.733Z,85.94
2024-05-09T06:53:07.109Z,85.90
2024-05-09T06:54:27.899Z,85.10
2024-05-09T06:55:06.956Z,84.99
2024-05-09T06:56:06.736Z,84.95
2024-05-09T06:57:07.887Z,84.45
2024-05-09T06:58:06.979Z,84.25
2024-05-09T06:59:06.968Z,83.60
2024-05-09T07:00:08.280Z,83.50
2024-05-09T07:01:07.927Z,83.56
2024-05-09T07:02:06.662Z,83.15
2024-05-09T07:03:06.941Z,83.01
2024-05-09T07:04:28.612Z,82.81
2024-05-09T07:05:07.030Z,82.17
2024-05-09T07:06:06.452Z,81.46
2024-05-09T07:07:05.872Z,81.56
2024-05-09T07:08:07.965Z,81.46
2024-05-09T07:09:05.942Z,81.67
2024-05-09T07:10:21.524Z,81.22
2024-05-09T07:11:06.966Z,80.72
2024-05-09T07:12:05.930Z,79.87
2024-05-09T07:13:05.821Z,79.77
2024-05-09T07:14:25.972Z,78.66
2024-05-09T07:15:05.783Z,77.55
2024-05-09T07:16:05.766Z,78.36
2024-05-09T07:17:05.955Z,78.52
2024-05-09T07:18:05.879Z,79.03
2024-05-09T07:19:05.960Z,79.29
2024-05-09T07:20:08.984Z,78.79
2024-05-09T07:21:06.527Z,78.55
2024-05-09T07:22:06.210Z,78.25
2024-05-09T07:23:06.564Z,77.50
2024-05-09T07:24:26.685Z,77.40
2024-05-09T07:25:14.222Z,77.57
2024-05-09T07:26:06.988Z,76.46
2024-05-09T07:27:06.939Z,76.03
2024-05-09T07:28:08.128Z,75.32
2024-05-09T07:29:07.949Z,75.18
2024-05-09T07:30:09.421Z,75.68
2024-05-09T07:31:07.455Z,75.09
2024-05-09T07:32:07.086Z,74.65
2024-05-09T07:33:08.726Z,74.35
2024-05-09T07:34:28.366Z,74.44
2024-05-09T07:35:08.550Z,73.64
2024-05-09T07:36:08.278Z,73.71
2024-05-09T07:37:07.363Z,73.41
2024-05-09T07:38:08.450Z,72.10
2024-05-09T07:39:06.354Z,72.27
2024-05-09T07:40:07.720Z,72.77
2024-05-09T07:41:08.206Z,71.77
2024-05-09T07:42:07.986Z,72.63
2024-05-09T07:43:07.349Z,71.93
2024-05-09T07:44:28.199Z,71.09
2024-05-09T07:45:21.591Z,70.79
2024-05-09T07:47:10.071Z,70.50
2024-05-09T07:48:14.494Z,70.29
2024-05-09T07:52:22.635Z,69.29
2024-05-09T07:53:37.578Z,68.59
2024-05-09T07:54:27.764Z,68.39
2024-05-09T07:55:06.460Z,68.79
2024-05-09T07:56:06.963Z,70.26
2024-05-09T07:57:05.967Z,70.16
2024-05-09T07:58:08.086Z,69.46
2024-05-09T07:59:06.354Z,69.12
2024-05-09T08:00:06.646Z,68.59
2024-05-09T08:01:06.234Z,67.89
2024-05-09T08:02:06.571Z,68.19
2024-05-09T08:03:05.877Z,66.55
2024-05-09T08:04:28.179Z,65.45
2024-05-09T08:05:06.073Z,65.83
2024-05-09T08:06:07.994Z,66.63
2024-05-09T08:07:07.916Z,65.99
2024-05-09T08:08:06.090Z,64.99
2024-05-09T08:09:10.836Z,64.69
2024-05-09T08:10:10.666Z,63.79
2024-05-09T08:11:06.945Z,64.83
2024-05-09T08:12:06.133Z,64.39
2024-05-09T08:13:07.823Z,64.00
2024-05-09T08:14:26.719Z,62.89
2024-05-09T08:15:05.801Z,63.36
2024-05-09T08:16:06.253Z,63.76
2024-05-09T08:17:05.819Z,62.13
2024-05-09T08:18:06.190Z,61.51
2024-05-09T08:19:07.786Z,61.30
2024-05-09T08:20:05.980Z,60.78
2024-05-09T08:21:07.646Z,60.97
2024-05-09T08:22:11.410Z,60.25
2024-05-09T08:23:05.995Z,59.45
2024-05-09T08:24:26.143Z,59.55
2024-05-09T08:25:06.199Z,59.75
2024-05-09T08:26:05.846Z,60.22
2024-05-09T08:27:05.574Z,61.09
2024-05-09T08:28:05.910Z,57.70
2024-05-09T08:29:05.549Z,58.76
2024-05-09T08:30:07.922Z,58.27
2024-05-09T08:31:07.184Z,58.97
2024-05-09T08:32:05.877Z,59.44
2024-05-09T08:33:06.361Z,59.11
2024-05-09T08:34:27.290Z,57.46
2024-05-09T08:35:06.514Z,56.47
2024-05-09T08:36:06.698Z,57.24
2024-05-09T08:37:13.172Z,55.85
2024-05-09T08:38:08.229Z,54.35
2024-05-09T08:39:07.979Z,55.65
2024-05-09T08:40:16.952Z,55.52
2024-05-09T08:41:06.541Z,55.32
2024-05-09T08:42:05.854Z,53.91
2024-05-09T08:43:06.219Z,53.91
2024-05-09T08:44:27.782Z,53.58
2024-05-09T08:45:05.564Z,53.08
2024-05-09T08:46:05.801Z,53.28
2024-05-09T08:47:07.525Z,52.56
2024-05-09T08:48:07.424Z,52.07
2024-05-09T08:49:05.747Z,51.05
2024-05-09T08:50:06.814Z,50.53
2024-05-09T08:51:05.547Z,50.34
2024-05-09T08:52:05.884Z,50.11
2024-05-09T08:53:05.720Z,50.81
2024-05-09T08:54:24.967Z,49.81
2024-05-09T08:55:06.328Z,50.31
2024-05-09T08:56:07.267Z,50.58
2024-05-09T08:57:05.504Z,49.99
2024-05-09T08:58:06.137Z,50.18
2024-05-09T08:59:04.697Z,50.38
2024-05-09T09:00:07.893Z,49.99
2024-05-09T09:01:08.473Z,49.99
2024-05-09T09:02:05.306Z,49.37
2024-05-09T09:03:05.420Z,48.70
2024-05-09T09:04:26.297Z,48.08
2024-05-09T09:05:06.190Z,48.85
2024-05-09T09:06:04.701Z,49.64
2024-05-09T09:07:07.336Z,47.74
2024-05-09T09:08:05.580Z,48.71
2024-05-09T09:09:05.304Z,49.08
2024-05-09T09:10:08.539Z,47.20
2024-05-09T09:11:05.326Z,46.81
2024-05-09T09:12:06.712Z,46.69
2024-05-09T09:13:05.603Z,45.89
2024-05-09T09:14:27.487Z,46.34
2024-05-09T09:15:15.986Z,45.75
2024-05-09T09:16:07.291Z,45.75
2024-05-09T09:17:05.020Z,46.25
2024-05-09T09:18:06.573Z,45.06
2024-05-09T09:19:05.619Z,44.67
2024-05-09T09:20:09.049Z,45.85
2024-05-09T09:21:06.459Z,45.24
2024-05-09T09:22:05.203Z,44.25
2024-05-09T09:23:07.358Z,46.20
2024-05-09T09:24:26.746Z,44.80
2024-05-09T09:25:06.975Z,44.29
2024-05-09T09:26:05.208Z,43.20
2024-05-09T09:27:05.387Z,43.18
2024-05-09T09:28:07.193Z,43.68
2024-05-09T09:29:07.826Z,44.17
2024-05-09T09:30:27.261Z,45.01
2024-05-09T09:31:06.190Z,44.44
2024-05-09T09:32:05.372Z,44.81
2024-05-09T09:33:05.488Z,42.43
2024-05-09T09:34:27.374Z,42.72
2024-05-09T09:35:05.077Z,41.14
2024-05-09T09:36:07.512Z,42.72
2024-05-09T09:37:05.069Z,42.32
2024-05-09T09:38:05.299Z,41.03
2024-05-09T09:39:05.003Z,42.21
2024-05-09T09:40:06.946Z,41.72
2024-05-09T09:41:05.054Z,42.39
2024-05-09T09:42:05.257Z,40.70
2024-05-09T09:43:04.977Z,40.70
2024-05-09T09:44:26.111Z,39.72
2024-05-09T09:45:05.880Z,39.74
2024-05-09T09:46:06.288Z,40.16
2024-05-09T09:47:04.867Z,40.94
2024-05-09T09:48:05.166Z,40.84
2024-05-09T09:49:04.916Z,41.55
2024-05-09T09:50:12.022Z,42.24
2024-05-09T09:51:05.771Z,42.32
2024-05-09T09:52:06.040Z,42.32
2024-05-09T09:53:04.713Z,41.41
2024-05-09T09:54:25.130Z,42.15
2024-05-09T09:55:06.746Z,42.08
2024-05-09T09:56:05.036Z,42.08
2024-05-09T09:57:04.782Z,42.66
2024-05-09T09:58:14.254Z,42.27
2024-05-09T09:59:05.031Z,42.55
2024-05-09T10:00:07.396Z,41.86
2024-05-09T10:01:07.058Z,42.08
2024-05-09T10:02:04.995Z,42.58
2024-05-09T10:03:04.990Z,41.90
2024-05-09T10:04:26.800Z,42.83
2024-05-09T10:05:05.221Z,44.74
2024-05-09T10:06:04.734Z,45.92
2024-05-09T10:07:06.941Z,47.05
2024-05-09T10:08:04.688Z,48.58
2024-05-09T10:09:05.844Z,49.40
2024-05-09T10:10:06.824Z,49.52
2024-05-09T10:11:04.918Z,49.76
2024-05-09T10:12:06.285Z,49.71
2024-05-09T10:13:04.971Z,51.72
2024-05-09T10:14:26.575Z,52.94
2024-05-09T10:15:04.855Z,52.96
2024-05-09T10:16:04.629Z,53.56
2024-05-09T10:17:04.861Z,54.18
2024-05-09T10:18:04.830Z,54.48
2024-05-09T10:19:04.807Z,55.08
2024-05-09T10:20:11.727Z,54.78
2024-05-09T10:21:05.719Z,54.55
2024-05-09T10:22:04.600Z,53.56
2024-05-09T10:23:04.646Z,53.49
2024-05-09T10:24:25.227Z,53.73
2024-05-09T10:25:05.285Z,52.34
2024-05-09T10:26:06.365Z,50.16
2024-05-09T10:27:04.696Z,48.61
2024-05-09T10:28:05.186Z,46.11
2024-05-09T10:29:04.695Z,46.70
2024-05-09T10:30:11.653Z,45.94
2024-05-09T10:31:05.653Z,47.74
2024-05-09T10:32:05.284Z,46.58
2024-05-09T10:33:04.753Z,47.49
2024-05-09T10:34:24.691Z,46.75
2024-05-09T10:35:04.619Z,46.61
2024-05-09T10:36:04.312Z,47.03
2024-05-09T10:37:05.074Z,44.90
2024-05-09T10:38:04.456Z,44.38
2024-05-09T10:39:04.236Z,43.82
2024-05-09T10:40:09.418Z,45.24
2024-05-09T10:41:05.200Z,45.15
2024-05-09T10:42:04.420Z,46.50
2024-05-09T10:43:06.350Z,47.93
2024-05-09T10:44:24.405Z,49.46
2024-05-09T10:45:06.068Z,50.28
2024-05-09T10:46:04.394Z,51.00
2024-05-09T10:47:04.704Z,51.72
2024-05-09T10:48:04.500Z,51.25
2024-05-09T10:49:07.168Z,53.36
2024-05-09T10:50:12.743Z,53.69
2024-05-09T10:51:05.486Z,54.08
2024-05-09T10:52:05.276Z,53.69
2024-05-09T10:53:04.458Z,54.50
2024-05-09T10:54:24.191Z,53.71
2024-05-09T10:55:11.784Z,53.71
2024-05-09T10:56:04.437Z,53.71
2024-05-09T10:57:04.173Z,53.51
2024-05-09T10:58:04.497Z,52.34
2024-05-09T10:59:04.106Z,51.67
2024-05-09T11:00:07.949Z,52.89
2024-05-09T11:01:07.033Z,52.44
2024-05-09T11:02:04.499Z,52.64
2024-05-09T11:03:04.094Z,52.86
2024-05-09T11:04:24.339Z,54.79
2024-05-09T11:05:04.228Z,54.19
2024-05-09T11:06:04.208Z,55.21
2024-05-09T11:07:05.381Z,54.81
2024-05-09T11:08:04.184Z,55.31
2024-05-09T11:09:12.138Z,54.61
2024-05-09T11:10:09.748Z,54.68
2024-05-09T11:11:05.123Z,55.98
2024-05-09T11:12:03.976Z,56.85
2024-05-09T11:13:04.506Z,54.43
2024-05-09T11:14:23.825Z,54.21
2024-05-09T11:15:04.056Z,54.21
2024-05-09T11:16:04.508Z,52.22
2024-05-09T11:17:04.031Z,53.81
2024-05-09T11:18:04.357Z,53.71
2024-05-09T11:19:04.181Z,53.61
2024-05-09T11:20:10.484Z,53.81
2024-05-09T11:21:04.916Z,52.91
2024-05-09T11:22:04.180Z,51.89
2024-05-09T11:23:03.877Z,52.99
2024-05-09T11:24:24.133Z,51.79
2024-05-09T11:25:03.890Z,52.49
2024-05-09T11:26:04.161Z,49.71
2024-05-09T11:27:03.856Z,50.01
2024-05-09T11:28:04.125Z,51.60
2024-05-09T11:29:03.788Z,49.04
2024-05-09T11:30:04.463Z,49.73
2024-05-09T11:31:03.803Z,49.83
2024-05-09T11:32:04.042Z,50.93
2024-05-09T11:33:03.705Z,53.61
2024-05-09T11:34:23.963Z,54.60
2024-05-09T11:35:03.644Z,54.11
2024-05-09T11:36:03.942Z,53.19
2024-05-09T11:37:03.754Z,52.86
2024-05-09T11:38:03.883Z,49.80
2024-05-09T11:39:04.106Z,49.83
2024-05-09T11:40:05.400Z,50.93
2024-05-09T11:41:03.002Z,52.81
2024-05-09T11:42:03.017Z,51.42
2024-05-09T11:43:03.750Z,53.02
2024-05-09T11:44:23.956Z,54.08
2024-05-09T11:45:03.686Z,52.49
2024-05-09T11:46:04.311Z,52.19
2024-05-09T11:47:03.621Z,52.79
2024-05-09T11:48:03.986Z,51.28
2024-05-09T11:49:03.758Z,51.57
2024-05-09T11:50:07.699Z,50.16
2024-05-09T11:51:03.518Z,51.65
2024-05-09T11:52:03.785Z,49.16
2024-05-09T11:53:03.511Z,50.05
2024-05-09T11:54:23.706Z,48.41
2024-05-09T11:55:03.521Z,48.61
2024-05-09T11:56:03.817Z,50.31
2024-05-09T11:57:03.429Z,48.81
2024-05-09T11:58:03.796Z,50.31
2024-05-09T11:59:03.460Z,51.00
2024-05-09T12:00:05.613Z,48.91
2024-05-09T12:01:05.490Z,50.40
2024-05-09T12:02:04.725Z,50.58
2024-05-09T12:03:03.606Z,50.48
2024-05-09T12:04:23.133Z,50.68
2024-05-09T12:05:05.625Z,48.99
2024-05-09T12:06:03.492Z,48.71
2024-05-09T12:07:03.550Z,48.54
2024-05-09T12:08:03.724Z,49.53
2024-05-09T12:09:03.437Z,51.03
2024-05-09T12:10:06.189Z,52.12
2024-05-09T12:11:03.532Z,51.12
2024-05-09T12:12:03.725Z,50.63
2024-05-09T12:13:05.402Z,50.45
2024-05-09T12:14:24.302Z,50.08
2024-05-09T12:15:03.296Z,51.17
2024-05-09T12:16:03.651Z,51.87
2024-05-09T12:17:03.388Z,51.37
2024-05-09T12:18:04.434Z,50.90
2024-05-09T12:19:03.327Z,51.20
2024-05-09T12:20:06.987Z,51.12
2024-05-09T12:21:04.151Z,51.32
2024-05-09T12:22:03.517Z,52.81
2024-05-09T12:23:03.114Z,50.90
2024-05-09T12:24:23.347Z,54.49
2024-05-09T12:25:03.191Z,54.08
2024-05-09T12:26:05.085Z,50.70
2024-05-09T12:27:03.540Z,50.30
2024-05-09T12:28:05.331Z,51.70
2024-05-09T12:29:03.469Z,53.78
2024-05-09T12:30:04.462Z,52.57
2024-05-09T12:31:03.490Z,52.76
2024-05-09T12:32:03.185Z,52.86
2024-05-09T12:33:03.508Z,51.15
2024-05-09T12:34:23.164Z,52.14
2024-05-09T12:35:03.350Z,52.64
2024-05-09T12:36:08.378Z,52.84
2024-05-09T12:37:03.153Z,49.36
2024-05-09T12:38:03.845Z,49.48
2024-05-09T12:39:03.084Z,49.38
2024-05-09T12:40:04.905Z,50.78
2024-05-09T12:41:04.251Z,51.17
2024-05-09T12:42:03.379Z,51.29
2024-05-09T12:43:03.170Z,51.29
2024-05-09T12:44:23.330Z,52.79
2024-05-09T12:45:03.185Z,52.57
2024-05-09T12:46:02.940Z,52.47
2024-05-09T12:47:05.074Z,50.68
2024-05-09T12:48:02.934Z,50.87
2024-05-09T12:49:03.301Z,51.45
2024-05-09T12:50:04.911Z,50.95
2024-05-09T12:51:02.994Z,51.35
2024-05-09T12:52:03.307Z,52.14
2024-05-09T12:53:04.018Z,51.45
2024-05-09T12:54:23.200Z,51.05
2024-05-09T12:55:03.919Z,52.24
2024-05-09T12:56:04.846Z,53.64
2024-05-09T12:57:02.947Z,52.44
2024-05-09T12:58:03.261Z,53.14
2024-05-09T12:59:02.890Z,53.44